< Cyclone 199701 1997 Season Cyclone 199703 >
Cyclone 199702 (MELANIE)
General InformationDetailed Track InformationTrack Information on Google MapsList of All Images || ResourceGoogle EarthGE AnimationAtom FeedGeoJSON
Detalied Best Track Wind (Time Zone = UTC)
Year Month Day Hour Lat. Long. Wind (kt) Gust (kt) Direc. of Major Storm Axis Radius of Major Storm Axis (nm) Radius of Minor Storm Axis (nm) Direc. of Major Gale Axis Radius of Major Gale Axis (nm) Radius of Minor Gale Axis (nm) Image
1996 10 28 10 -9.0 97.8 23 -1 symmetric - - symmetric - - Image
1996 10 28 22 -9.2 97.1 27 -1 symmetric - - symmetric - - Image
1996 10 29 10 -9.5 96.4 27 -1 symmetric - - symmetric - - Image
1996 10 29 22 -9.8 96.0 27 -1 symmetric - - symmetric - - Image
1996 10 30 07 -10.0 95.6 27 -1 symmetric - - symmetric - - Image
1996 10 30 10 -10.0 95.4 29 -1 symmetric - - symmetric - - Image
1996 10 30 22 -9.9 95.3 29 -1 symmetric - - symmetric - - Image
1996 10 31 01 -9.8 95.2 29 -1 symmetric - - symmetric - - Image
1996 10 31 10 -9.2 94.4 29 -1 symmetric - - symmetric - - Image
1996 10 31 16 -8.9 93.6 35 -1 symmetric - - symmetric - - Image
1996 10 31 22 -8.6 92.6 41 -1 symmetric - - symmetric - - Image
1996 11 1 01 -8.5 92.2 41 -1 symmetric - - symmetric - - Image
1996 11 1 04 -8.5 91.8 41 -1 symmetric - - symmetric - - Image
1996 11 1 10 -8.5 91.0 41 -1 symmetric - - symmetric - - Image
1996 11 1 16 -8.5 90.2 41 -1 symmetric - - symmetric - - Image
1996 11 1 22 -8.5 89.4 47 -1 symmetric - - symmetric - - Image
1996 11 2 01 -8.5 89.0 47 -1 symmetric - - symmetric - - Image
1996 11 2 04 -8.5 88.7 47 -1 symmetric - - symmetric - - Image
1996 11 2 10 -8.6 88.2 54 -1 symmetric - - symmetric - - Image
1996 11 2 22 -9.3 87.2 70 -1 symmetric - - symmetric - - Image
1996 11 3 04 -9.3 86.8 76 -1 symmetric - - symmetric - - Image
1996 11 3 07 -9.9 86.7 80 -1 symmetric - - symmetric - - Image
1996 11 3 10 -10.0 86.6 84 -1 symmetric - - symmetric - - Image
1996 11 3 16 -10.1 86.0 93 -1 symmetric - - symmetric - - Image
1996 11 3 22 -10.2 85.6 105 -1 symmetric - - symmetric - - Image
1996 11 4 04 -10.3 85.4 107 -1 symmetric - - symmetric - - Image
1996 11 4 10 -10.3 85.2 107 -1 symmetric - - symmetric - - Image
1996 11 5 01 -10.5 84.7 89 -1 symmetric - - symmetric - - Image
1996 11 5 04 -10.5 84.5 84 -1 symmetric - - symmetric - - Image
1996 11 5 07 -10.6 84.2 80 -1 symmetric - - symmetric - - Image
1996 11 5 10 -10.8 83.9 84 -1 symmetric - - symmetric - - Image
1996 11 5 22 -11.2 82.5 89 -1 symmetric - - symmetric - - Image
1996 11 6 07 -11.4 81.3 97 -1 symmetric - - symmetric - - Image
1996 11 6 10 -11.5 80.9 101 -1 symmetric - - symmetric - - Image
1996 11 6 16 -11.6 80.2 97 -1 symmetric - - symmetric - - Image
< Cyclone 199701 1997 Season Cyclone 199703 >

Help